Time;durP1;ratioP1;P1;durP2;ratioP2;P2;SDS_P1;SDS_P2;PMS_P1;PMS_P2;Temp;Humidity;BMP_temperature;BMP_pressure;BME280_temperature;BME280_humidity;BME280_pressure;Samples;Min_cycle;Max_cycle;Signal;HPM_P1;HPM_P2
2023/03/21 00:00:00;;;;;;;6;2;;;;;;;;;;;;;
2023/03/21 00:02:29;;;;;;;3.8;2;;;;;;;;;;;;;
2023/03/21 00:04:56;;;;;;;3;2;;;;;;;;;;;;;
2023/03/21 00:07:25;;;;;;;3.7;1.9;;;;;;;;;;;;;
2023/03/21 00:09:50;;;;;;;2.9;2.1;;;;;;;;;;;;;
2023/03/21 00:12:19;;;;;;;2.4;2;;;;;;;;;;;;;
2023/03/21 00:14:42;;;;;;;3.6;2.1;;;;;;;;;;;;;
2023/03/21 00:17:09;;;;;;;2.3;1.8;;;;;;;;;;;;;
2023/03/21 00:19:37;;;;;;;3.6;2.1;;;;;;;;;;;;;
2023/03/21 00:21:57;;;;;;;2.4;2.1;;;;;;;;;;;;;
2023/03/21 00:24:23;;;;;;;3.2;2.2;;;;;;;;;;;;;
2023/03/21 00:26:51;;;;;;;4.3;2.3;;;;;;;;;;;;;
2023/03/21 00:29:20;;;;;;;4.6;2.4;;;;;;;;;;;;;
2023/03/21 00:31:45;;;;;;;2.6;2.2;;;;;;;;;;;;;
2023/03/21 00:34:10;;;;;;;3.5;1.9;;;;;;;;;;;;;
2023/03/21 00:36:37;;;;;;;2.4;1.9;;;;;;;;;;;;;
2023/03/21 00:39:03;;;;;;;2.4;2.2;;;;;;;;;;;;;
2023/03/21 00:41:29;;;;;;;2.6;1.8;;;;;;;;;;;;;
2023/03/21 00:43:56;;;;;;;2.9;1.9;;;;;;;;;;;;;
2023/03/21 00:46:22;;;;;;;3.6;1.9;;;;;;;;;;;;;
2023/03/21 00:48:47;;;;;;;3.5;1.8;;;;;;;;;;;;;
2023/03/21 00:51:14;;;;;;;2.5;1.7;;;;;;;;;;;;;
2023/03/21 00:54:04;;;;;;;2;1.6;;;;;;;;;;;;;
2023/03/21 00:56:32;;;;;;;3.5;2;;;;;;;;;;;;;
2023/03/21 00:58:57;;;;;;;2;1.8;;;;;;;;;;;;;
2023/03/21 01:01:30;;;;;;;2.4;1.9;;;;;;;;;;;;;
2023/03/21 01:04:03;;;;;;;3;2;;;;;;;;;;;;;
2023/03/21 01:06:20;;;;;;;3;2;;;;;;;;;;;;;
2023/03/21 01:08:44;;;;;;;2.4;1.8;;;;;;;;;;;;;
2023/03/21 01:11:10;;;;;;;2.5;2;;;;;;;;;;;;;
2023/03/21 01:13:35;;;;;;;2.8;2;;;;;;;;;;;;;
2023/03/21 01:16:04;;;;;;;2.8;2.1;;;;;;;;;;;;;
2023/03/21 01:18:28;;;;;;;2.2;1.8;;;;;;;;;;;;;
2023/03/21 01:20:55;;;;;;;2.4;1.7;;;;;;;;;;;;;
2023/03/21 01:23:20;;;;;;;3.4;2.2;;;;;;;;;;;;;
2023/03/21 01:25:46;;;;;;;3.1;1.8;;;;;;;;;;;;;
2023/03/21 01:28:11;;;;;;;2.2;1.9;;;;;;;;;;;;;
2023/03/21 01:30:38;;;;;;;20.6;15.6;;;;;;;;;;;;;
2023/03/21 01:33:03;;;;;;;7.4;4.6;;;;;;;;;;;;;
2023/03/21 01:35:31;;;;;;;3.7;2.5;;;;;;;;;;;;;
2023/03/21 01:37:56;;;;;;;2.1;1.8;;;;;;;;;;;;;
2023/03/21 01:40:23;;;;;;;2.5;1.8;;;;;;;;;;;;;
2023/03/21 01:42:48;;;;;;;2.8;1.8;;;;;;;;;;;;;
2023/03/21 01:45:18;;;;;;;2.6;1.8;;;;;;;;;;;;;
2023/03/21 01:47:46;;;;;;;2.2;1.9;;;;;;;;;;;;;
2023/03/21 01:50:11;;;;;;;3.5;2.2;;;;;;;;;;;;;
2023/03/21 01:52:37;;;;;;;2.3;1.9;;;;;;;;;;;;;
2023/03/21 01:55:02;;;;;;;7.1;2.1;;;;;;;;;;;;;
2023/03/21 01:57:31;;;;;;;2.4;1.6;;;;;;;;;;;;;
2023/03/21 01:59:53;;;;;;;3.5;1.7;;;;;;;;;;;;;
2023/03/21 02:02:19;;;;;;;2.2;1.6;;;;;;;;;;;;;
2023/03/21 02:04:54;;;;;;;2.8;2;;;;;;;;;;;;;
2023/03/21 02:07:08;;;;;;;2.1;1.7;;;;;;;;;;;;;
2023/03/21 02:09:34;;;;;;;2;1.6;;;;;;;;;;;;;
2023/03/21 02:12:01;;;;;;;2;1.6;;;;;;;;;;;;;
2023/03/21 02:14:26;;;;;;;1.8;1.5;;;;;;;;;;;;;
2023/03/21 02:16:53;;;;;;;2.6;1.7;;;;;;;;;;;;;
2023/03/21 02:19:18;;;;;;;2.7;1.8;;;;;;;;;;;;;
2023/03/21 02:21:43;;;;;;;2.4;1.7;;;;;;;;;;;;;
2023/03/21 02:24:08;;;;;;;1.8;1.7;;;;;;;;;;;;;
2023/03/21 02:26:33;;;;;;;2.2;1.7;;;;;;;;;;;;;
2023/03/21 02:28:58;;;;;;;2;1.8;;;;;;;;;;;;;
2023/03/21 02:31:23;;;;;;;2;1.7;;;;;;;;;;;;;
2023/03/21 02:33:48;;;;;;;2;1.8;;;;;;;;;;;;;
2023/03/21 02:36:14;;;;;;;2.2;1.7;;;;;;;;;;;;;
2023/03/21 02:38:41;;;;;;;3.3;2;;;;;;;;;;;;;
2023/03/21 02:41:06;;;;;;;2.2;1.7;;;;;;;;;;;;;
2023/03/21 02:43:34;;;;;;;3;1.7;;;;;;;;;;;;;
2023/03/21 02:45:58;;;;;;;3.3;1.9;;;;;;;;;;;;;
2023/03/21 02:48:23;;;;;;;2.3;1.8;;;;;;;;;;;;;
2023/03/21 02:50:48;;;;;;;3.6;1.8;;;;;;;;;;;;;
2023/03/21 02:53:15;;;;;;;7.6;2.1;;;;;;;;;;;;;
2023/03/21 02:55:41;;;;;;;4.7;2;;;;;;;;;;;;;
2023/03/21 02:58:06;;;;;;;5.9;3;;;;;;;;;;;;;
2023/03/21 03:00:31;;;;;;;2.5;1.9;;;;;;;;;;;;;
2023/03/21 03:03:00;;;;;;;2.8;1.8;;;;;;;;;;;;;
2023/03/21 03:05:24;;;;;;;3.9;2.2;;;;;;;;;;;;;
2023/03/21 03:07:50;;;;;;;3.8;1.9;;;;;;;;;;;;;
2023/03/21 03:10:17;;;;;;;3.1;1.9;;;;;;;;;;;;;
2023/03/21 03:12:42;;;;;;;3.3;1.7;;;;;;;;;;;;;
2023/03/21 03:15:07;;;;;;;4;2;;;;;;;;;;;;;
2023/03/21 03:17:33;;;;;;;3;1.9;;;;;;;;;;;;;
2023/03/21 03:19:57;;;;;;;3.8;2.1;;;;;;;;;;;;;
2023/03/21 03:22:23;;;;;;;2.7;2;;;;;;;;;;;;;
2023/03/21 03:24:48;;;;;;;3.8;1.6;;;;;;;;;;;;;
2023/03/21 03:27:14;;;;;;;2.9;1.7;;;;;;;;;;;;;
2023/03/21 03:29:39;;;;;;;4.4;1.7;;;;;;;;;;;;;
2023/03/21 03:32:05;;;;;;;4.5;1.9;;;;;;;;;;;;;
2023/03/21 03:34:31;;;;;;;3.3;1.7;;;;;;;;;;;;;
2023/03/21 03:36:56;;;;;;;1.9;1.7;;;;;;;;;;;;;
2023/03/21 03:39:21;;;;;;;1.9;1.5;;;;;;;;;;;;;
2023/03/21 03:41:48;;;;;;;1.7;1.5;;;;;;;;;;;;;
2023/03/21 03:44:13;;;;;;;1.9;1.6;;;;;;;;;;;;;
2023/03/21 03:46:39;;;;;;;2.1;1.6;;;;;;;;;;;;;
2023/03/21 03:49:04;;;;;;;2.3;1.9;;;;;;;;;;;;;
2023/03/21 03:51:29;;;;;;;1.8;1.7;;;;;;;;;;;;;
2023/03/21 03:53:54;;;;;;;1.8;1.6;;;;;;;;;;;;;
2023/03/21 03:56:19;;;;;;;3.9;1.9;;;;;;;;;;;;;
2023/03/21 03:58:45;;;;;;;4.8;2.1;;;;;;;;;;;;;
2023/03/21 04:02:38;;;;;;;2;1.8;;;;;;;7.21;90.25293;938.4764;;;;
2023/03/21 04:05:04;;;;;;;3;1.5;;;;;;;7.09;91.04395;938.4434;;;;
2023/03/21 04:07:36;;;;;;;4.9;1.8;;;;;;;7.04;91.22559;938.4841;;;;
2023/03/21 04:10:03;;;;;;;4.1;1.8;;;;;;;6.88;92.10938;938.4659;;;;
2023/03/21 04:12:36;;;;;;;1.9;1.7;;;;;;;6.96;91.94434;938.493;;;;
2023/03/21 04:15:02;;;;;;;2.8;1.5;;;;;;;7.1;91.37305;938.4966;;;;
2023/03/21 04:17:38;;;;;;;1.6;1.4;;;;;;;7;91.27246;938.5043;;;;
2023/03/21 04:20:09;;;;;;;1.9;1.2;;;;;;;6.99;91.44238;938.4946;;;;
2023/03/21 04:22:37;;;;;;;1.6;1.3;;;;;;;7.12;90.9707;938.493;;;;
2023/03/21 04:25:09;;;;;;;2.8;1.6;;;;;;;7.16;90.61816;938.498;;;;
2023/03/21 04:27:42;;;;;;;1.8;1.6;;;;;;;7.17;90.79004;938.5195;;;;
2023/03/21 04:30:20;;;;;;;14.6;9.5;;;;;;;6.95;91.80664;938.5316;;;;
2023/03/21 04:32:55;;;;;;;5.6;3.1;;;;;;;6.99;92.16699;938.5095;;;;
2023/03/21 04:35:22;;;;;;;4.5;2.6;;;;;;;7.03;91.84668;938.3953;;;;
2023/03/21 04:37:48;;;;;;;2.6;2;;;;;;;7.09;91.50879;938.4425;;;;
2023/03/21 04:40:16;;;;;;;2.6;2;;;;;;;7.15;91.08984;938.478;;;;
2023/03/21 04:42:39;;;;;;;2.6;1.7;;;;;;;7.24;90.63477;938.4439;;;;
2023/03/21 04:45:09;;;;;;;2.7;1.9;;;;;;;7.29;90.25879;938.3942;;;;
2023/03/21 04:47:37;;;;;;;2.4;1.9;;;;;;;7.32;89.94727;938.4107;;;;
2023/03/21 04:50:02;;;;;;;2.6;1.6;;;;;;;7.1;90.70605;938.4587;;;;
2023/03/21 04:52:27;;;;;;;2.5;1.9;;;;;;;7.08;91.09668;938.4225;;;;
2023/03/21 04:54:54;;;;;;;4.8;1.9;;;;;;;7.03;91.82324;938.3834;;;;
2023/03/21 04:57:19;;;;;;;3.7;2.3;;;;;;;7.16;91.31836;938.3942;;;;
2023/03/21 04:59:46;;;;;;;3.5;2;;;;;;;7.2;90.71387;938.3499;;;;
2023/03/21 05:02:11;;;;;;;8.6;2.8;;;;;;;7.13;91.0957;938.4077;;;;
2023/03/21 05:04:36;;;;;;;5.1;2.3;;;;;;;7.23;90.65332;938.4023;;;;
2023/03/21 05:07:02;;;;;;;3.2;2.2;;;;;;;7.25;90.37402;938.4226;;;;
2023/03/21 05:09:28;;;;;;;3.3;2.1;;;;;;;7.09;91.0332;938.4149;;;;
2023/03/21 05:11:52;;;;;;;4.1;2;;;;;;;7.18;90.91602;938.4122;;;;
2023/03/21 05:14:21;;;;;;;3.8;1.6;;;;;;;7.25;90.47656;938.3641;;;;
2023/03/21 05:16:51;;;;;;;2.3;1.5;;;;;;;7.33;90.05176;938.4252;;;;
2023/03/21 05:19:12;;;;;;;2.2;1.8;;;;;;;7.37;89.83398;938.4246;;;;
2023/03/21 05:21:42;;;;;;;1.8;1.4;;;;;;;7.26;90.04785;938.4174;;;;
2023/03/21 05:24:13;;;;;;;1.6;1.3;;;;;;;7.12;90.44922;938.4266;;;;
2023/03/21 05:26:38;;;;;;;1.5;1.4;;;;;;;6.98;91.15527;938.3898;;;;
2023/03/21 05:29:10;;;;;;;4.2;3.1;;;;;;;6.84;92.29199;938.4278;;;;
2023/03/21 05:31:35;;;;;;;8.3;5.1;;;;;;;6.9;92.30566;938.4537;;;;
2023/03/21 05:34:03;;;;;;;16;8.3;;;;;;;6.93;92.31152;938.4236;;;;
2023/03/21 05:36:28;;;;;;;9.9;5.4;;;;;;;6.98;91.9502;938.3931;;;;
2023/03/21 05:38:58;;;;;;;6.3;3.7;;;;;;;6.98;91.51758;938.446;;;;
2023/03/21 05:41:24;;;;;;;12.3;6.8;;;;;;;6.84;92.26953;938.4579;;;;
2023/03/21 05:43:54;;;;;;;8.9;6.1;;;;;;;6.88;92.43555;938.4437;;;;
2023/03/21 05:46:24;;;;;;;5.8;3;;;;;;;6.89;92.11133;938.4441;;;;
2023/03/21 05:48:49;;;;;;;7.1;3.7;;;;;;;7.1;91.3291;938.427;;;;
2023/03/21 05:51:16;;;;;;;6.8;4.1;;;;;;;7.18;90.58789;938.3448;;;;
2023/03/21 05:53:41;;;;;;;7.3;3.5;;;;;;;7.29;90.19141;938.4077;;;;
2023/03/21 05:56:09;;;;;;;7.2;4.3;;;;;;;7.46;89.30859;938.4878;;;;
2023/03/21 05:58:35;;;;;;;7.1;4.3;;;;;;;7.6;88.1709;938.5247;;;;
2023/03/21 06:01:03;;;;;;;4.1;2.9;;;;;;;7.44;87.72754;938.4864;;;;
2023/03/21 06:03:28;;;;;;;3.7;2.5;;;;;;;7.19;88.50488;938.5018;;;;
2023/03/21 06:05:57;;;;;;;3.6;2.5;;;;;;;7.16;89.7998;938.5192;;;;
2023/03/21 06:08:26;;;;;;;3.5;2.4;;;;;;;7.38;88.99707;938.5555;;;;
2023/03/21 06:10:51;;;;;;;4.6;2.4;;;;;;;7.46;88.49121;938.5406;;;;
2023/03/21 06:13:19;;;;;;;3.4;2.1;;;;;;;7.43;88.37207;938.5266;;;;
2023/03/21 06:15:45;;;;;;;3.3;2;;;;;;;7.46;88.66113;938.5295;;;;
2023/03/21 06:18:14;;;;;;;4;2;;;;;;;7.54;88.42969;938.5029;;;;
2023/03/21 06:20:39;;;;;;;2.8;1.7;;;;;;;7.57;88.39258;938.5385;;;;
2023/03/21 06:23:07;;;;;;;3.9;1.9;;;;;;;7.57;88.03711;938.5248;;;;
2023/03/21 06:25:32;;;;;;;1.9;1.4;;;;;;;7.52;88.27734;938.4967;;;;
2023/03/21 06:27:59;;;;;;;2.8;1.4;;;;;;;7.46;88.24316;938.5211;;;;
2023/03/21 06:30:25;;;;;;;2.8;1.9;;;;;;;7.46;88.24121;938.5416;;;;
2023/03/21 06:32:54;;;;;;;4.1;2;;;;;;;7.4;88.72949;938.5178;;;;
2023/03/21 06:35:22;;;;;;;3.6;2;;;;;;;7.36;89.57129;938.5281;;;;
2023/03/21 06:37:48;;;;;;;4.1;2;;;;;;;7.32;89.47363;938.4394;;;;
2023/03/21 06:40:18;;;;;;;9.3;4.5;;;;;;;7.31;90.14941;938.4025;;;;
2023/03/21 06:42:48;;;;;;;13.8;7.7;;;;;;;7.36;89.73047;938.4314;;;;
2023/03/21 06:45:13;;;;;;;10.8;6.1;;;;;;;7.44;89.34863;938.4278;;;;
2023/03/21 06:47:43;;;;;;;6.6;3.6;;;;;;;7.42;88.75781;938.391;;;;
2023/03/21 06:50:17;;;;;;;6.8;2.6;;;;;;;7.4;89.52246;938.3571;;;;
2023/03/21 06:52:46;;;;;;;5.9;2.2;;;;;;;7.45;90.54297;938.3709;;;;
2023/03/21 06:55:11;;;;;;;4;2.1;;;;;;;7.62;89.81738;938.3137;;;;
2023/03/21 06:57:37;;;;;;;5.2;2;;;;;;;7.88;89.30469;938.2756;;;;
2023/03/21 07:00:04;;;;;;;5;1.9;;;;;;;8.1;88.15918;938.3428;;;;
2023/03/21 07:02:33;;;;;;;7.4;1.9;;;;;;;8.17;87.36816;938.383;;;;
2023/03/21 07:04:58;;;;;;;3.4;2.2;;;;;;;8.04;86.61426;938.3132;;;;
2023/03/21 07:07:28;;;;;;;2.8;1.5;;;;;;;7.93;86.5127;938.2354;;;;
2023/03/21 07:09:51;;;;;;;5.1;1.8;;;;;;;7.94;86.90039;938.2395;;;;
2023/03/21 07:12:20;;;;;;;4.4;1.7;;;;;;;8.21;86.31934;938.2778;;;;
2023/03/21 07:14:45;;;;;;;4.2;1.9;;;;;;;8.47;85.31348;938.2385;;;;
2023/03/21 07:17:14;;;;;;;2.8;2;;;;;;;8.65;84.67871;938.3187;;;;
2023/03/21 07:19:42;;;;;;;2.8;1.5;;;;;;;8.76;83.91699;938.284;;;;
2023/03/21 07:22:07;;;;;;;4;1.9;;;;;;;8.75;83.68555;938.364;;;;
2023/03/21 07:24:35;;;;;;;5.3;1.4;;;;;;;8.79;83.06738;938.348;;;;
2023/03/21 07:27:00;;;;;;;3.8;1.5;;;;;;;9.08;82.20313;938.3189;;;;
2023/03/21 07:29:27;;;;;;;2.7;1.7;;;;;;;8.98;81.69531;938.3297;;;;
2023/03/21 07:31:52;;;;;;;4.3;1.4;;;;;;;9.13;81.48535;938.322;;;;
2023/03/21 07:34:19;;;;;;;1.9;1.3;;;;;;;9.4;81.08105;938.3159;;;;
2023/03/21 07:36:44;;;;;;;2.5;1.4;;;;;;;9.73;80.28711;938.2897;;;;
2023/03/21 07:39:13;;;;;;;2.6;1.5;;;;;;;9.97;78.45117;938.2014;;;;
2023/03/21 07:41:43;;;;;;;2.4;1.6;;;;;;;10.17;78.80664;938.3376;;;;
2023/03/21 07:44:08;;;;;;;2.4;1.5;;;;;;;10.38;78;938.1852;;;;
2023/03/21 07:46:35;;;;;;;3.9;1.9;;;;;;;10.63;77.18945;938.3267;;;;
2023/03/21 07:49:00;;;;;;;1.4;1.3;;;;;;;10.63;74.49414;938.3497;;;;
2023/03/21 07:51:26;;;;;;;3.1;1.1;;;;;;;10.79;73.59473;938.3368;;;;
2023/03/21 07:53:51;;;;;;;1.5;1;;;;;;;10.8;72.04297;938.2548;;;;
2023/03/21 07:56:21;;;;;;;2.5;1.4;;;;;;;10.73;73.37891;938.3187;;;;
2023/03/21 07:58:50;;;;;;;1.9;1.4;;;;;;;10.78;72.77246;938.3367;;;;
2023/03/21 08:01:15;;;;;;;1.7;1.3;;;;;;;10.99;73.31055;938.2941;;;;
2023/03/21 08:03:44;;;;;;;2.3;1.5;;;;;;;11.01;72.06738;938.2587;;;;
2023/03/21 08:06:09;;;;;;;1.9;1.6;;;;;;;11.13;72.69434;938.3233;;;;
2023/03/21 08:08:38;;;;;;;1.7;1.6;;;;;;;11.25;71.76367;938.2806;;;;
2023/03/21 08:11:03;;;;;;;2.4;1.6;;;;;;;11.42;71.29004;938.2405;;;;
2023/03/21 08:13:30;;;;;;;1.7;1.2;;;;;;;11.54;71.41211;938.2659;;;;
2023/03/21 08:15:55;;;;;;;2.2;1.5;;;;;;;11.41;69.04492;938.2672;;;;
2023/03/21 08:18:26;;;;;;;1.9;1.6;;;;;;;11.6;70.43652;938.3084;;;;
2023/03/21 08:20:57;;;;;;;1.8;1.6;;;;;;;11.48;67.38574;938.2911;;;;
2023/03/21 08:23:26;;;;;;;2.3;1.7;;;;;;;11.18;69.30469;938.2583;;;;
2023/03/21 08:25:51;;;;;;;1.5;1.4;;;;;;;11.2;68.45117;938.2576;;;;
2023/03/21 08:28:21;;;;;;;1.7;1.6;;;;;;;11.65;68.01855;938.2748;;;;
2023/03/21 08:30:53;;;;;;;2.2;1.6;;;;;;;11.87;68.86719;938.2581;;;;
2023/03/21 08:33:19;;;;;;;3.2;1.7;;;;;;;12.05;67.9209;938.2751;;;;
2023/03/21 08:35:49;;;;;;;2.9;2;;;;;;;12.24;66.55176;938.26;;;;
2023/03/21 08:39:04;;;;;;;2.3;1.2;;;;;;;12.01;65.8418;938.19;;;;
2023/03/21 08:41:27;;;;;;;1.5;1.2;;;;;;;11.91;66.77539;938.1951;;;;
2023/03/21 08:43:56;;;;;;;1.2;1.1;;;;;;;12.08;66.36621;938.1825;;;;
2023/03/21 08:46:21;;;;;;;2.3;1.2;;;;;;;12.37;67.31641;938.1877;;;;
2023/03/21 08:48:48;;;;;;;2.5;1.3;;;;;;;12.71;64.9834;938.1976;;;;
2023/03/21 08:51:13;;;;;;;1.7;1.2;;;;;;;12.9;63.98926;938.1916;;;;
2023/03/21 08:53:42;;;;;;;2.7;1.6;;;;;;;13.07;63.42871;938.1463;;;;
2023/03/21 08:56:06;;;;;;;1.9;1.2;;;;;;;13.21;63.77148;938.182;;;;
2023/03/21 08:58:32;;;;;;;4.2;2.6;;;;;;;13.27;63.57324;938.0836;;;;
2023/03/21 09:00:57;;;;;;;7.8;4.6;;;;;;;13.34;62.75586;938.1418;;;;
2023/03/21 09:06:39;;;;;;;2;1.8;;;;;;;13.37;61.77246;938.0578;;;;
2023/03/21 09:09:07;;;;;;;2.8;1.9;;;;;;;13.43;62.26367;938.0973;;;;
2023/03/21 09:11:30;;;;;;;2.8;2;;;;;;;13.47;62.01465;938.0916;;;;
2023/03/21 09:14:00;;;;;;;2.9;2;;;;;;;13.37;62.39258;938.1099;;;;
2023/03/21 09:16:25;;;;;;;2.9;2;;;;;;;13.28;62.94336;938.0876;;;;
2023/03/21 09:18:54;;;;;;;2.4;2;;;;;;;13.31;63.34961;938.0547;;;;
2023/03/21 09:21:19;;;;;;;2;1.8;;;;;;;13.7;61.59961;938.0176;;;;
2023/03/21 09:23:51;;;;;;;3.6;2.1;;;;;;;14.04;59.63477;937.993;;;;
2023/03/21 09:26:12;;;;;;;2.4;1.7;;;;;;;14.27;59.74609;937.9641;;;;
2023/03/21 09:28:39;;;;;;;2.1;1.9;;;;;;;14.14;59.1748;938.0045;;;;
2023/03/21 09:31:03;;;;;;;2.4;1.7;;;;;;;14.37;58.49316;937.9587;;;;
2023/03/21 09:33:32;;;;;;;2.3;1.6;;;;;;;14.92;57.80469;937.9531;;;;
2023/03/21 09:35:59;;;;;;;2.6;1.7;;;;;;;15.13;55.87012;937.9548;;;;
2023/03/21 09:38:25;;;;;;;4.7;2.1;;;;;;;15.11;55.15332;937.9269;;;;
2023/03/21 09:40:47;;;;;;;2.6;1.8;;;;;;;14.92;55.32422;937.9346;;;;
2023/03/21 09:43:15;;;;;;;2.8;1.4;;;;;;;15.26;54.2832;937.8441;;;;
2023/03/21 09:45:41;;;;;;;2.6;1.4;;;;;;;15.46;54.35547;937.848;;;;
2023/03/21 09:48:06;;;;;;;2.1;1.5;;;;;;;15.56;53.15332;937.9041;;;;
2023/03/21 09:50:32;;;;;;;2.7;1.3;;;;;;;15.42;53.06738;937.8364;;;;
2023/03/21 09:53:01;;;;;;;2.1;1.3;;;;;;;15.59;52.67285;937.8317;;;;
2023/03/21 09:55:30;;;;;;;2.1;1.3;;;;;;;15.64;53.2207;937.7729;;;;
2023/03/21 09:57:52;;;;;;;1.4;1.3;;;;;;;15.83;52.34375;937.8024;;;;
2023/03/21 10:00:19;;;;;;;2.6;1.4;;;;;;;15.81;52.20215;937.7213;;;;
2023/03/21 10:02:45;;;;;;;3.1;1.2;;;;;;;15.91;51.49707;937.7019;;;;
2023/03/21 10:05:09;;;;;;;2.2;1.3;;;;;;;15.97;51.97852;937.69;;;;
2023/03/21 10:07:32;;;;;;;3.3;1.2;;;;;;;16.22;51.75391;937.7098;;;;
2023/03/21 10:10:02;;;;;;;3.3;1.3;;;;;;;16.09;49.70313;937.7096;;;;
2023/03/21 10:12:29;;;;;;;1.1;1;;;;;;;15.67;51.88574;937.7316;;;;
2023/03/21 10:14:52;;;;;;;1.7;1.2;;;;;;;15.56;50.625;937.6744;;;;
2023/03/21 10:17:23;;;;;;;1.4;1.3;;;;;;;15.48;51.50391;937.7019;;;;
2023/03/21 10:19:48;;;;;;;1.3;1.2;;;;;;;15.4;52.31543;937.6911;;;;
2023/03/21 10:22:13;;;;;;;1.9;1.4;;;;;;;15.57;51.06543;937.6487;;;;
2023/03/21 10:24:38;;;;;;;2;1.2;;;;;;;15.79;50.77832;937.5786;;;;
2023/03/21 10:27:06;;;;;;;2;1.5;;;;;;;16.05;50.65723;937.515;;;;
2023/03/21 10:29:31;;;;;;;1.5;1.2;;;;;;;16.24;49.31543;937.5795;;;;
2023/03/21 10:31:58;;;;;;;1.8;1.1;;;;;;;16.3;50.38574;937.5417;;;;
2023/03/21 10:34:23;;;;;;;1.1;1;;;;;;;16.59;49.54004;937.5337;;;;
2023/03/21 10:36:53;;;;;;;4;1.1;;;;;;;16.78;47.99707;937.5058;;;;
2023/03/21 10:39:25;;;;;;;1.2;1;;;;;;;16.71;49.4375;937.4867;;;;
2023/03/21 10:41:50;;;;;;;1.4;1.1;;;;;;;16.46;49.82617;937.4152;;;;
2023/03/21 10:44:15;;;;;;;1.1;1;;;;;;;16.64;49.63867;937.4594;;;;
2023/03/21 10:46:40;;;;;;;1.3;1.2;;;;;;;16.48;48.7168;937.4639;;;;
2023/03/21 10:49:05;;;;;;;1.3;1.2;;;;;;;16.44;49.48828;937.4089;;;;
2023/03/21 10:51:30;;;;;;;1;1;;;;;;;16.63;48.40918;937.3911;;;;
2023/03/21 10:53:56;;;;;;;1.2;1.1;;;;;;;16.9;46.44629;937.3915;;;;
2023/03/21 10:56:21;;;;;;;1.5;1.4;;;;;;;16.83;47.08887;937.3572;;;;
2023/03/21 10:58:46;;;;;;;1.4;1.3;;;;;;;16.91;46.19238;937.3784;;;;
2023/03/21 11:01:13;;;;;;;1.5;1.2;;;;;;;16.85;47.87793;937.3578;;;;
2023/03/21 11:03:36;;;;;;;1.3;1.2;;;;;;;16.32;46.9873;937.3308;;;;
2023/03/21 11:06:01;;;;;;;2;1.3;;;;;;;16.6;47.76855;937.3061;;;;
2023/03/21 11:08:27;;;;;;;2.6;1.3;;;;;;;16.86;48.22559;937.3536;;;;
2023/03/21 11:10:51;;;;;;;1.2;1.1;;;;;;;16.72;46.91406;937.2767;;;;
2023/03/21 11:13:16;;;;;;;1.4;1.3;;;;;;;16.9;47.75586;937.2983;;;;
2023/03/21 11:15:41;;;;;;;1.7;1.3;;;;;;;17.07;47.05566;937.2601;;;;
2023/03/21 11:18:06;;;;;;;1.1;1.1;;;;;;;17.29;46.04688;937.2447;;;;
2023/03/21 11:20:33;;;;;;;1.5;1;;;;;;;17.46;45.46191;937.2338;;;;
2023/03/21 11:22:57;;;;;;;1.8;1.1;;;;;;;17.55;44.86719;937.1492;;;;
2023/03/21 11:25:26;;;;;;;1.8;1.1;;;;;;;17.71;44.96582;937.1836;;;;
2023/03/21 11:27:51;;;;;;;1.2;1.1;;;;;;;17.72;45.92969;937.1504;;;;
2023/03/21 11:30:23;;;;;;;1.6;1.1;;;;;;;17.65;45.24902;937.0942;;;;
2023/03/21 11:32:51;;;;;;;1.6;1.2;;;;;;;17.48;46.20703;937.098;;;;
2023/03/21 11:35:19;;;;;;;1.7;1.4;;;;;;;17.18;46.63867;937.0773;;;;
2023/03/21 11:37:45;;;;;;;1.6;1.4;;;;;;;17.22;47.23438;937.0197;;;;
2023/03/21 11:40:16;;;;;;;2.5;1.5;;;;;;;17.04;47.73633;936.9511;;;;
2023/03/21 11:42:45;;;;;;;1.6;1.5;;;;;;;16.9;48.46289;936.9186;;;;
2023/03/21 11:45:09;;;;;;;1.7;1.4;;;;;;;17.05;49.03613;936.8544;;;;
2023/03/21 11:47:38;;;;;;;1.3;1.2;;;;;;;16.79;48.60156;936.8269;;;;
2023/03/21 11:50:03;;;;;;;1.4;1.3;;;;;;;16.85;48.15625;936.8318;;;;
2023/03/21 11:52:32;;;;;;;1.9;1.3;;;;;;;16.61;47.93262;936.7271;;;;
2023/03/21 11:55:01;;;;;;;2;1.3;;;;;;;16.45;50.64551;936.6719;;;;
2023/03/21 11:57:26;;;;;;;2.6;1.6;;;;;;;16.26;50.54395;936.7073;;;;
2023/03/21 11:59:55;;;;;;;1.4;1.3;;;;;;;16.43;50.56445;936.7106;;;;
2023/03/21 12:02:26;;;;;;;1.6;1.5;;;;;;;16.46;49.84961;936.5969;;;;
2023/03/21 12:04:55;;;;;;;1.9;1.4;;;;;;;16.34;50.62207;936.6161;;;;
2023/03/21 12:07:25;;;;;;;1.2;1.1;;;;;;;16.08;50.7666;936.5394;;;;
2023/03/21 12:09:50;;;;;;;1.4;1.3;;;;;;;16.27;51.10059;936.495;;;;
2023/03/21 12:12:17;;;;;;;1.9;1.2;;;;;;;16.46;50.72949;936.5222;;;;
2023/03/21 12:14:45;;;;;;;1.2;1.1;;;;;;;16.72;50.04102;936.5087;;;;
2023/03/21 12:17:11;;;;;;;1.3;1.2;;;;;;;16.9;49.7373;936.4231;;;;
2023/03/21 12:19:41;;;;;;;2.1;1.4;;;;;;;16.8;49.66797;936.48;;;;
2023/03/21 12:22:10;;;;;;;1.1;1.1;;;;;;;16.66;50.79883;936.3912;;;;
2023/03/21 12:24:36;;;;;;;1;1;;;;;;;16.62;49.05664;936.367;;;;
2023/03/21 12:27:01;;;;;;;1.5;1.3;;;;;;;16.61;49.62305;936.3251;;;;
2023/03/21 12:29:28;;;;;;;0.8;0.8;;;;;;;16.62;49.55469;936.3269;;;;
2023/03/21 12:31:53;;;;;;;1.3;1.1;;;;;;;16.32;50.45801;936.2877;;;;
2023/03/21 12:34:20;;;;;;;1.2;1;;;;;;;16.34;51.00391;936.2762;;;;
2023/03/21 12:36:46;;;;;;;1.5;1.2;;;;;;;16.57;50.44043;936.2791;;;;
2023/03/21 12:39:11;;;;;;;1.1;1;;;;;;;16.68;51.29785;936.2852;;;;
2023/03/21 12:41:40;;;;;;;0.8;0.8;;;;;;;16.86;49.84863;936.2252;;;;
2023/03/21 12:44:06;;;;;;;2.7;1.1;;;;;;;16.83;50.93359;936.2403;;;;
2023/03/21 12:46:31;;;;;;;1;1;;;;;;;17.1;50.97754;936.2065;;;;
2023/03/21 12:48:56;;;;;;;1.2;1.1;;;;;;;17.17;49.40918;936.1335;;;;
2023/03/21 12:51:21;;;;;;;2.9;1.4;;;;;;;17.51;48.56543;936.1339;;;;
2023/03/21 12:53:51;;;;;;;1.2;1.1;;;;;;;17.65;47.90723;936.1096;;;;
2023/03/21 12:56:17;;;;;;;1.3;1.1;;;;;;;17.26;49.22168;936.0976;;;;
2023/03/21 12:58:42;;;;;;;1.3;1;;;;;;;17.47;48.08496;936.0662;;;;
2023/03/21 13:01:07;;;;;;;1.5;1.2;;;;;;;17.45;48.12891;936.0707;;;;
2023/03/21 13:03:32;;;;;;;1.1;1;;;;;;;17.5;48.05371;936.0519;;;;
2023/03/21 13:06:00;;;;;;;0.9;0.9;;;;;;;17.39;48.0752;936.0426;;;;
2023/03/21 13:08:25;;;;;;;1;0.9;;;;;;;17.5;46.96191;935.9916;;;;
2023/03/21 13:10:54;;;;;;;1.2;1.1;;;;;;;17.6;48.05176;935.9959;;;;
2023/03/21 13:13:20;;;;;;;1;0.9;;;;;;;17.86;46.90918;935.9025;;;;
2023/03/21 13:15:49;;;;;;;0.7;0.7;;;;;;;17.85;46.80273;935.9278;;;;
2023/03/21 13:18:16;;;;;;;0.6;0.6;;;;;;;18;46.0293;935.913;;;;
2023/03/21 13:20:41;;;;;;;0.5;0.5;;;;;;;18.05;45.18555;935.9098;;;;
2023/03/21 13:23:07;;;;;;;1.1;0.7;;;;;;;18.05;45.03516;935.8879;;;;
2023/03/21 13:25:36;;;;;;;0.8;0.8;;;;;;;18.08;45.53711;935.8834;;;;
2023/03/21 13:28:01;;;;;;;1.2;0.9;;;;;;;17.91;46.58887;935.8184;;;;
2023/03/21 13:30:26;;;;;;;1.7;0.9;;;;;;;17.66;47.52539;935.8459;;;;
2023/03/21 13:32:51;;;;;;;1.6;1;;;;;;;17.79;47.0752;935.7782;;;;
2023/03/21 13:35:16;;;;;;;1.1;0.8;;;;;;;17.96;46.58301;935.7649;;;;
2023/03/21 13:37:42;;;;;;;1;0.8;;;;;;;17.77;48.28027;935.7422;;;;
2023/03/21 13:40:11;;;;;;;1.7;0.8;;;;;;;18.02;46.78613;935.6895;;;;
2023/03/21 13:42:33;;;;;;;0.8;0.8;;;;;;;18.49;45.91797;935.6481;;;;
2023/03/21 13:44:58;;;;;;;0.6;0.6;;;;;;;18.68;44.09961;935.6301;;;;
2023/03/21 13:47:23;;;;;;;1;0.9;;;;;;;19.12;43.94531;935.5812;;;;
2023/03/21 13:49:48;;;;;;;1.1;1;;;;;;;19.35;44.01465;935.5491;;;;
2023/03/21 13:52:17;;;;;;;1.9;1;;;;;;;18.99;44.17676;935.57;;;;
2023/03/21 13:54:42;;;;;;;2;1.4;;;;;;;19.07;45.28027;935.5517;;;;
2023/03/21 13:57:09;;;;;;;1.9;1.1;;;;;;;18.95;45.52148;935.492;;;;
2023/03/21 13:59:34;;;;;;;1.2;1;;;;;;;18.62;46.48926;935.4395;;;;
2023/03/21 14:01:59;;;;;;;1.7;1.2;;;;;;;18.78;48.1123;935.4163;;;;
2023/03/21 14:04:27;;;;;;;1.9;1.2;;;;;;;19.31;47.42383;935.3767;;;;
2023/03/21 14:06:52;;;;;;;0.9;0.9;;;;;;;18.88;48.16992;935.3703;;;;
2023/03/21 14:09:17;;;;;;;1.9;1.2;;;;;;;19.75;45.54785;935.3887;;;;
2023/03/21 14:11:43;;;;;;;1.6;1.3;;;;;;;20.28;43.76855;935.3828;;;;
2023/03/21 14:14:12;;;;;;;1.7;1.2;;;;;;;19.73;45.85938;935.4241;;;;
2023/03/21 14:16:40;;;;;;;1.4;1.3;;;;;;;19.13;48.24316;935.4316;;;;
2023/03/21 14:19:05;;;;;;;1.3;1.1;;;;;;;19.06;46.04688;935.3722;;;;
2023/03/21 14:21:32;;;;;;;1.7;1.4;;;;;;;18.75;47.52637;935.3549;;;;
2023/03/21 14:23:57;;;;;;;1.9;1.5;;;;;;;18.62;49.47754;935.3837;;;;
2023/03/21 14:26:22;;;;;;;1.5;1.4;;;;;;;18;50.47754;935.3692;;;;
2023/03/21 14:28:47;;;;;;;1.4;1.3;;;;;;;17.74;50.05273;935.3444;;;;
2023/03/21 14:31:12;;;;;;;1.3;1.3;;;;;;;17.61;50.25879;935.324;;;;
2023/03/21 14:33:40;;;;;;;1.7;1.5;;;;;;;17.48;50.52246;935.3575;;;;
2023/03/21 14:36:03;;;;;;;2.1;1.5;;;;;;;17.16;51.85352;935.3525;;;;
2023/03/21 14:38:30;;;;;;;2;1.5;;;;;;;17;53.05078;935.3619;;;;
2023/03/21 14:40:57;;;;;;;1.7;1.6;;;;;;;16.54;53.18164;935.3672;;;;
2023/03/21 14:43:21;;;;;;;1.8;1.6;;;;;;;16.14;54.91309;935.3784;;;;
2023/03/21 14:45:46;;;;;;;2.1;1.8;;;;;;;16.09;55.27637;935.3778;;;;
2023/03/21 14:48:11;;;;;;;2;1.7;;;;;;;16.11;54.97949;935.2996;;;;
2023/03/21 14:50:39;;;;;;;2.5;1.9;;;;;;;16.1;55.68262;935.3649;;;;
2023/03/21 14:53:04;;;;;;;2;1.8;;;;;;;16.23;54.99414;935.317;;;;
2023/03/21 14:55:30;;;;;;;2.4;1.9;;;;;;;16.3;55.32715;935.2258;;;;
2023/03/21 14:57:55;;;;;;;2;1.8;;;;;;;16.07;55.93359;935.3347;;;;
2023/03/21 15:00:27;;;;;;;2.1;1.9;;;;;;;16.32;55.50293;935.289;;;;
2023/03/21 15:02:56;;;;;;;2.1;1.9;;;;;;;16.37;55.34766;935.231;;;;
2023/03/21 15:05:25;;;;;;;3;2;;;;;;;16.52;54.17383;935.2721;;;;
2023/03/21 15:07:57;;;;;;;3;2;;;;;;;16.49;55.2002;935.1995;;;;
2023/03/21 15:10:26;;;;;;;2.6;2.1;;;;;;;16.05;56.83398;935.1895;;;;
2023/03/21 15:12:52;;;;;;;2.4;2;;;;;;;16.08;56.59375;935.231;;;;
2023/03/21 15:15:18;;;;;;;2.5;2.1;;;;;;;16.3;55.9043;935.1962;;;;
2023/03/21 15:17:43;;;;;;;3.9;2.5;;;;;;;16.28;55.43945;935.1813;;;;
2023/03/21 15:20:16;;;;;;;2.8;2.5;;;;;;;16.18;56.72363;935.218;;;;
2023/03/21 15:22:44;;;;;;;2.5;2.3;;;;;;;15.95;57.27148;935.2391;;;;
2023/03/21 15:25:09;;;;;;;5.1;2.6;;;;;;;15.88;57.75879;935.2211;;;;
2023/03/21 15:27:38;;;;;;;3;2.7;;;;;;;16.05;56.78711;935.1808;;;;
2023/03/21 15:30:03;;;;;;;2.6;2.4;;;;;;;16.03;56.59961;935.2679;;;;
2023/03/21 15:32:34;;;;;;;2.3;2.1;;;;;;;15.98;56.35059;935.2804;;;;
2023/03/21 15:34:59;;;;;;;3.5;2.6;;;;;;;16.03;56.51855;935.2124;;;;
2023/03/21 15:37:32;;;;;;;3.2;2.3;;;;;;;16.07;55.87598;935.2029;;;;
2023/03/21 15:39:57;;;;;;;2.9;2.6;;;;;;;15.97;56.07129;935.2211;;;;
2023/03/21 15:42:22;;;;;;;2.5;2.3;;;;;;;15.84;56.08984;935.1967;;;;
2023/03/21 15:44:52;;;;;;;3.7;2.5;;;;;;;15.76;56.86426;935.1953;;;;
2023/03/21 15:47:21;;;;;;;3.2;2.3;;;;;;;15.81;56.61621;935.2355;;;;